Emmitsburg, Maryland
Current Conditions -  °F | °C
As of 10:53 AM on Saturday 22 Nov 2014 (Local Time) from KRYT Reporting Station
Clear Clear  
Wind Chill: 33°   Ceiling: Unl
Heat Index: 38°   Visibility: 10mi
Dew Point: 11°   Wind: 7mph
Humidity: 33%   Direction: 220°SW
Pressure: 30.37"   Gusts: NA
Location:  39.7°N, 77.33°W
Report Text: KRYT 221553Z AUTO 22006KT 10SM CLR 03/M12 A3037 RMK AO2 SLP302 T00331117 $
Loading
Personal Weather Stations






























Interactive Weather Map New forecast layout! Learn more

10-Day Weather Forecast

Advertisements
Track Severe Weather on mobile